sensor_id;sensor_type;location;lat;lon;timestamp;temperature;humidity
68746;SHT31;66104;45.456;11.064;2023-04-30T00:00:44;15.88;64.35
68746;SHT31;66104;45.456;11.064;2023-04-30T00:03:21;15.87;64.44
68746;SHT31;66104;45.456;11.064;2023-04-30T00:05:58;15.88;64.45
68746;SHT31;66104;45.456;11.064;2023-04-30T00:08:34;15.90;64.41
68746;SHT31;66104;45.456;11.064;2023-04-30T00:11:11;15.90;64.21
68746;SHT31;66104;45.456;11.064;2023-04-30T00:13:47;15.90;64.13
68746;SHT31;66104;45.456;11.064;2023-04-30T00:16:24;15.88;64.18
68746;SHT31;66104;45.456;11.064;2023-04-30T00:19:00;15.88;64.16
68746;SHT31;66104;45.456;11.064;2023-04-30T00:21:37;15.88;64.10
68746;SHT31;66104;45.456;11.064;2023-04-30T00:24:13;15.88;64.18
68746;SHT31;66104;45.456;11.064;2023-04-30T00:26:50;15.85;64.19
68746;SHT31;66104;45.456;11.064;2023-04-30T00:29:27;15.83;64.27
68746;SHT31;66104;45.456;11.064;2023-04-30T00:32:03;15.82;64.37
68746;SHT31;66104;45.456;11.064;2023-04-30T00:34:40;15.79;64.39
68746;SHT31;66104;45.456;11.064;2023-04-30T00:37:18;15.79;64.49
68746;SHT31;66104;45.456;11.064;2023-04-30T00:39:54;15.74;64.64
68746;SHT31;66104;45.456;11.064;2023-04-30T00:42:31;15.70;64.76
68746;SHT31;66104;45.456;11.064;2023-04-30T00:45:09;15.69;64.86
68746;SHT31;66104;45.456;11.064;2023-04-30T00:47:49;15.67;64.94
68746;SHT31;66104;45.456;11.064;2023-04-30T00:50:25;15.69;65.00
68746;SHT31;66104;45.456;11.064;2023-04-30T00:53:01;15.69;65.03
68746;SHT31;66104;45.456;11.064;2023-04-30T00:55:38;15.70;65.07
68746;SHT31;66104;45.456;11.064;2023-04-30T00:58:16;15.67;65.12
68746;SHT31;66104;45.456;11.064;2023-04-30T01:00:52;15.66;65.26
68746;SHT31;66104;45.456;11.064;2023-04-30T01:03:28;15.69;65.33
68746;SHT31;66104;45.456;11.064;2023-04-30T01:06:05;15.67;65.57
68746;SHT31;66104;45.456;11.064;2023-04-30T01:08:43;15.64;65.82
68746;SHT31;66104;45.456;11.064;2023-04-30T01:11:24;15.63;65.73
68746;SHT31;66104;45.456;11.064;2023-04-30T01:14:19;15.65;65.60
68746;SHT31;66104;45.456;11.064;2023-04-30T01:17:04;15.62;65.62
68746;SHT31;66104;45.456;11.064;2023-04-30T01:19:48;15.59;65.69
68746;SHT31;66104;45.456;11.064;2023-04-30T01:22:29;15.56;65.79
68746;SHT31;66104;45.456;11.064;2023-04-30T01:28:32;15.49;65.98
68746;SHT31;66104;45.456;11.064;2023-04-30T01:31:12;15.45;66.07
68746;SHT31;66104;45.456;11.064;2023-04-30T01:33:50;15.46;66.04
68746;SHT31;66104;45.456;11.064;2023-04-30T01:36:28;15.47;66.12
68746;SHT31;66104;45.456;11.064;2023-04-30T01:42:28;15.48;66.17
68746;SHT31;66104;45.456;11.064;2023-04-30T01:45:17;15.43;66.31
68746;SHT31;66104;45.456;11.064;2023-04-30T01:48:15;15.40;66.44
68746;SHT31;66104;45.456;11.064;2023-04-30T01:51:04;15.37;66.54
68746;SHT31;66104;45.456;11.064;2023-04-30T01:53:50;15.40;66.50
68746;SHT31;66104;45.456;11.064;2023-04-30T01:56:34;15.43;66.43
68746;SHT31;66104;45.456;11.064;2023-04-30T01:59:16;15.48;66.33
68746;SHT31;66104;45.456;11.064;2023-04-30T02:01:54;15.51;66.28
68746;SHT31;66104;45.456;11.064;2023-04-30T02:04:31;15.50;66.29
68746;SHT31;66104;45.456;11.064;2023-04-30T02:07:07;15.51;66.28
68746;SHT31;66104;45.456;11.064;2023-04-30T02:09:49;15.52;66.27
68746;SHT31;66104;45.456;11.064;2023-04-30T02:12:25;15.52;66.31
68746;SHT31;66104;45.456;11.064;2023-04-30T02:15:01;15.52;66.38
68746;SHT31;66104;45.456;11.064;2023-04-30T02:17:42;15.51;66.48
68746;SHT31;66104;45.456;11.064;2023-04-30T02:20:19;15.52;66.60
68746;SHT31;66104;45.456;11.064;2023-04-30T02:22:55;15.50;66.64
68746;SHT31;66104;45.456;11.064;2023-04-30T02:25:32;15.50;66.76
68746;SHT31;66104;45.456;11.064;2023-04-30T02:28:10;15.49;66.85
68746;SHT31;66104;45.456;11.064;2023-04-30T02:30:48;15.49;66.90
68746;SHT31;66104;45.456;11.064;2023-04-30T02:33:24;15.49;66.97
68746;SHT31;66104;45.456;11.064;2023-04-30T02:36:01;15.48;67.05
68746;SHT31;66104;45.456;11.064;2023-04-30T02:38:39;15.48;67.14
68746;SHT31;66104;45.456;11.064;2023-04-30T02:41:16;15.47;67.20
68746;SHT31;66104;45.456;11.064;2023-04-30T02:43:52;15.48;67.23
68746;SHT31;66104;45.456;11.064;2023-04-30T02:46:29;15.47;67.24
68746;SHT31;66104;45.456;11.064;2023-04-30T02:49:05;15.44;67.28
68746;SHT31;66104;45.456;11.064;2023-04-30T02:51:41;15.41;67.25
68746;SHT31;66104;45.456;11.064;2023-04-30T02:54:18;15.34;67.33
68746;SHT31;66104;45.456;11.064;2023-04-30T02:56:55;15.29;67.44
68746;SHT31;66104;45.456;11.064;2023-04-30T02:59:32;15.25;67.52
68746;SHT31;66104;45.456;11.064;2023-04-30T03:02:08;15.21;67.49
68746;SHT31;66104;45.456;11.064;2023-04-30T03:04:44;15.10;67.72
68746;SHT31;66104;45.456;11.064;2023-04-30T03:07:20;15.01;67.99
68746;SHT31;66104;45.456;11.064;2023-04-30T03:09:56;14.93;68.27
68746;SHT31;66104;45.456;11.064;2023-04-30T03:12:33;14.87;68.59
68746;SHT31;66104;45.456;11.064;2023-04-30T03:15:10;14.74;69.22
68746;SHT31;66104;45.456;11.064;2023-04-30T03:17:47;14.68;69.79
68746;SHT31;66104;45.456;11.064;2023-04-30T03:20:24;14.60;70.12
68746;SHT31;66104;45.456;11.064;2023-04-30T03:23:00;14.55;70.52
68746;SHT31;66104;45.456;11.064;2023-04-30T03:25:37;14.47;70.81
68746;SHT31;66104;45.456;11.064;2023-04-30T03:28:14;14.42;71.23
68746;SHT31;66104;45.456;11.064;2023-04-30T03:30:50;14.41;71.30
68746;SHT31;66104;45.456;11.064;2023-04-30T03:33:27;14.44;71.33
68746;SHT31;66104;45.456;11.064;2023-04-30T03:36:04;14.44;71.34
68746;SHT31;66104;45.456;11.064;2023-04-30T03:38:42;14.51;71.20
68746;SHT31;66104;45.456;11.064;2023-04-30T03:41:18;14.57;71.03
68746;SHT31;66104;45.456;11.064;2023-04-30T03:43:55;14.62;70.91
68746;SHT31;66104;45.456;11.064;2023-04-30T03:46:31;14.66;70.75
68746;SHT31;66104;45.456;11.064;2023-04-30T03:49:07;14.68;70.55
68746;SHT31;66104;45.456;11.064;2023-04-30T03:51:43;14.64;70.55
68746;SHT31;66104;45.456;11.064;2023-04-30T03:54:19;14.65;70.56
68746;SHT31;66104;45.456;11.064;2023-04-30T03:56:56;14.64;70.66
68746;SHT31;66104;45.456;11.064;2023-04-30T03:59:35;14.60;70.74
68746;SHT31;66104;45.456;11.064;2023-04-30T04:02:12;14.59;70.74
68746;SHT31;66104;45.456;11.064;2023-04-30T04:04:49;14.55;70.85
68746;SHT31;66104;45.456;11.064;2023-04-30T04:07:25;14.56;70.80
68746;SHT31;66104;45.456;11.064;2023-04-30T04:10:01;14.59;70.68
68746;SHT31;66104;45.456;11.064;2023-04-30T04:12:39;14.57;70.31
68746;SHT31;66104;45.456;11.064;2023-04-30T04:15:16;14.51;70.31
68746;SHT31;66104;45.456;11.064;2023-04-30T04:17:52;14.48;70.38
68746;SHT31;66104;45.456;11.064;2023-04-30T04:20:30;14.47;70.44
68746;SHT31;66104;45.456;11.064;2023-04-30T04:23:07;14.47;70.50
68746;SHT31;66104;45.456;11.064;2023-04-30T04:25:44;14.46;70.57
68746;SHT31;66104;45.456;11.064;2023-04-30T04:28:22;14.48;70.60
68746;SHT31;66104;45.456;11.064;2023-04-30T04:30:57;14.50;70.69
68746;SHT31;66104;45.456;11.064;2023-04-30T04:33:33;14.50;70.86
68746;SHT31;66104;45.456;11.064;2023-04-30T04:36:10;14.52;70.90
68746;SHT31;66104;45.456;11.064;2023-04-30T04:38:46;14.54;70.96
68746;SHT31;66104;45.456;11.064;2023-04-30T04:41:22;14.56;71.00
68746;SHT31;66104;45.456;11.064;2023-04-30T04:43:59;14.60;71.04
68746;SHT31;66104;45.456;11.064;2023-04-30T04:46:37;14.65;71.00
68746;SHT31;66104;45.456;11.064;2023-04-30T04:49:14;14.68;71.00
68746;SHT31;66104;45.456;11.064;2023-04-30T04:51:52;14.70;71.00
68746;SHT31;66104;45.456;11.064;2023-04-30T04:54:29;14.74;70.97
68746;SHT31;66104;45.456;11.064;2023-04-30T04:57:05;14.78;70.95
68746;SHT31;66104;45.456;11.064;2023-04-30T04:59:41;14.82;70.95
68746;SHT31;66104;45.456;11.064;2023-04-30T05:02:17;14.85;70.98
68746;SHT31;66104;45.456;11.064;2023-04-30T05:04:54;14.87;70.98
68746;SHT31;66104;45.456;11.064;2023-04-30T05:07:30;14.90;70.99
68746;SHT31;66104;45.456;11.064;2023-04-30T05:10:09;14.95;71.07
68746;SHT31;66104;45.456;11.064;2023-04-30T05:12:46;14.98;71.17
68746;SHT31;66104;45.456;11.064;2023-04-30T05:15:23;15.01;71.16
68746;SHT31;66104;45.456;11.064;2023-04-30T05:18:00;15.06;71.07
68746;SHT31;66104;45.456;11.064;2023-04-30T05:20:36;15.11;71.00
68746;SHT31;66104;45.456;11.064;2023-04-30T05:23:13;15.10;71.02
68746;SHT31;66104;45.456;11.064;2023-04-30T05:25:51;15.06;71.28
68746;SHT31;66104;45.456;11.064;2023-04-30T05:28:28;15.07;71.38
68746;SHT31;66104;45.456;11.064;2023-04-30T05:31:05;15.06;71.38
68746;SHT31;66104;45.456;11.064;2023-04-30T05:33:42;15.06;71.42
68746;SHT31;66104;45.456;11.064;2023-04-30T05:36:19;15.08;71.43
68746;SHT31;66104;45.456;11.064;2023-04-30T05:38:55;15.13;71.48
68746;SHT31;66104;45.456;11.064;2023-04-30T05:41:32;15.18;71.40
68746;SHT31;66104;45.456;11.064;2023-04-30T05:44:09;15.20;71.35
68746;SHT31;66104;45.456;11.064;2023-04-30T05:46:45;15.26;71.31
68746;SHT31;66104;45.456;11.064;2023-04-30T05:49:22;15.32;71.42
68746;SHT31;66104;45.456;11.064;2023-04-30T05:52:02;15.36;71.52
68746;SHT31;66104;45.456;11.064;2023-04-30T05:54:39;15.41;71.60
68746;SHT31;66104;45.456;11.064;2023-04-30T05:57:17;15.46;71.79
68746;SHT31;66104;45.456;11.064;2023-04-30T05:59:54;15.53;71.73
68746;SHT31;66104;45.456;11.064;2023-04-30T06:02:39;15.60;71.89
68746;SHT31;66104;45.456;11.064;2023-04-30T06:05:15;15.67;72.17
68746;SHT31;66104;45.456;11.064;2023-04-30T06:07:52;15.73;72.34
68746;SHT31;66104;45.456;11.064;2023-04-30T06:10:28;15.79;72.46
68746;SHT31;66104;45.456;11.064;2023-04-30T06:13:05;15.85;73.08
68746;SHT31;66104;45.456;11.064;2023-04-30T06:15:42;15.88;73.35
68746;SHT31;66104;45.456;11.064;2023-04-30T06:18:20;15.92;73.32
68746;SHT31;66104;45.456;11.064;2023-04-30T06:20:56;15.94;73.32
68746;SHT31;66104;45.456;11.064;2023-04-30T06:23:32;15.97;73.50
68746;SHT31;66104;45.456;11.064;2023-04-30T06:26:09;16.00;73.73
68746;SHT31;66104;45.456;11.064;2023-04-30T06:28:46;16.03;73.66
68746;SHT31;66104;45.456;11.064;2023-04-30T06:31:22;16.07;73.46
68746;SHT31;66104;45.456;11.064;2023-04-30T06:33:57;16.12;73.12
68746;SHT31;66104;45.456;11.064;2023-04-30T06:36:34;16.17;72.97
68746;SHT31;66104;45.456;11.064;2023-04-30T06:39:10;16.22;72.78
68746;SHT31;66104;45.456;11.064;2023-04-30T06:41:48;16.26;72.67
68746;SHT31;66104;45.456;11.064;2023-04-30T06:44:24;16.31;72.61
68746;SHT31;66104;45.456;11.064;2023-04-30T06:47:00;16.33;72.70
68746;SHT31;66104;45.456;11.064;2023-04-30T06:49:37;16.36;73.06
68746;SHT31;66104;45.456;11.064;2023-04-30T06:52:14;16.37;73.37
68746;SHT31;66104;45.456;11.064;2023-04-30T06:54:50;16.37;73.79
68746;SHT31;66104;45.456;11.064;2023-04-30T06:57:26;16.38;74.03
68746;SHT31;66104;45.456;11.064;2023-04-30T07:00:07;16.38;74.13
68746;SHT31;66104;45.456;11.064;2023-04-30T07:02:46;16.39;74.09
68746;SHT31;66104;45.456;11.064;2023-04-30T07:05:24;16.41;74.37
68746;SHT31;66104;45.456;11.064;2023-04-30T07:08:00;16.43;74.30
68746;SHT31;66104;45.456;11.064;2023-04-30T07:10:37;16.48;74.32
68746;SHT31;66104;45.456;11.064;2023-04-30T07:13:13;16.50;74.17
68746;SHT31;66104;45.456;11.064;2023-04-30T07:15:49;16.51;73.99
68746;SHT31;66104;45.456;11.064;2023-04-30T07:18:26;16.55;74.01
68746;SHT31;66104;45.456;11.064;2023-04-30T07:21:02;16.60;74.01
68746;SHT31;66104;45.456;11.064;2023-04-30T07:23:40;16.67;73.91
68746;SHT31;66104;45.456;11.064;2023-04-30T07:26:19;16.75;73.82
68746;SHT31;66104;45.456;11.064;2023-04-30T07:28:55;16.82;73.73
68746;SHT31;66104;45.456;11.064;2023-04-30T07:31:31;16.92;73.54
68746;SHT31;66104;45.456;11.064;2023-04-30T07:34:08;17.01;73.51
68746;SHT31;66104;45.456;11.064;2023-04-30T07:36:46;17.10;73.65
68746;SHT31;66104;45.456;11.064;2023-04-30T07:39:22;17.21;73.63
68746;SHT31;66104;45.456;11.064;2023-04-30T07:42:00;17.30;73.58
68746;SHT31;66104;45.456;11.064;2023-04-30T07:44:36;17.39;73.63
68746;SHT31;66104;45.456;11.064;2023-04-30T07:47:13;17.49;71.13
68746;SHT31;66104;45.456;11.064;2023-04-30T07:49:49;17.61;69.92
68746;SHT31;66104;45.456;11.064;2023-04-30T07:52:26;17.72;69.74
68746;SHT31;66104;45.456;11.064;2023-04-30T07:55:02;17.85;67.95
68746;SHT31;66104;45.456;11.064;2023-04-30T07:57:42;17.96;66.93
68746;SHT31;66104;45.456;11.064;2023-04-30T08:00:19;18.03;66.55
68746;SHT31;66104;45.456;11.064;2023-04-30T08:02:57;18.10;66.11
68746;SHT31;66104;45.456;11.064;2023-04-30T08:05:34;18.16;66.55
68746;SHT31;66104;45.456;11.064;2023-04-30T08:08:10;18.21;66.66
68746;SHT31;66104;45.456;11.064;2023-04-30T08:10:46;18.25;66.19
68746;SHT31;66104;45.456;11.064;2023-04-30T08:13:22;18.28;65.56
68746;SHT31;66104;45.456;11.064;2023-04-30T08:15:59;18.32;65.75
68746;SHT31;66104;45.456;11.064;2023-04-30T08:18:36;18.34;65.72
68746;SHT31;66104;45.456;11.064;2023-04-30T08:21:14;18.38;65.00
68746;SHT31;66104;45.456;11.064;2023-04-30T08:23:50;18.41;64.88
68746;SHT31;66104;45.456;11.064;2023-04-30T08:26:26;18.46;65.25
68746;SHT31;66104;45.456;11.064;2023-04-30T08:29:03;18.48;65.02
68746;SHT31;66104;45.456;11.064;2023-04-30T08:31:38;18.54;64.19
68746;SHT31;66104;45.456;11.064;2023-04-30T08:34:15;18.59;63.93
68746;SHT31;66104;45.456;11.064;2023-04-30T08:36:52;18.66;64.05
68746;SHT31;66104;45.456;11.064;2023-04-30T08:39:29;18.74;63.18
68746;SHT31;66104;45.456;11.064;2023-04-30T08:42:07;18.84;62.66
68746;SHT31;66104;45.456;11.064;2023-04-30T08:44:47;18.93;62.58
68746;SHT31;66104;45.456;11.064;2023-04-30T08:47:24;19.04;61.09
68746;SHT31;66104;45.456;11.064;2023-04-30T08:50:00;19.13;59.95
68746;SHT31;66104;45.456;11.064;2023-04-30T08:52:39;19.20;59.69
68746;SHT31;66104;45.456;11.064;2023-04-30T08:55:17;19.26;59.48
68746;SHT31;66104;45.456;11.064;2023-04-30T08:57:54;19.30;59.19
68746;SHT31;66104;45.456;11.064;2023-04-30T09:00:30;19.32;58.70
68746;SHT31;66104;45.456;11.064;2023-04-30T09:03:09;19.35;58.44
68746;SHT31;66104;45.456;11.064;2023-04-30T09:05:46;19.38;58.29
68746;SHT31;66104;45.456;11.064;2023-04-30T09:08:39;19.42;58.50
68746;SHT31;66104;45.456;11.064;2023-04-30T09:14:08;19.49;57.91
68746;SHT31;66104;45.456;11.064;2023-04-30T09:16:54;19.52;57.59
68746;SHT31;66104;45.456;11.064;2023-04-30T09:19:31;19.59;57.75
68746;SHT31;66104;45.456;11.064;2023-04-30T09:22:20;19.63;57.72
68746;SHT31;66104;45.456;11.064;2023-04-30T09:24:56;19.67;57.56
68746;SHT31;66104;45.456;11.064;2023-04-30T09:27:33;19.66;57.26
68746;SHT31;66104;45.456;11.064;2023-04-30T09:30:10;19.65;56.65
68746;SHT31;66104;45.456;11.064;2023-04-30T09:33:07;19.65;56.45
68746;SHT31;66104;45.456;11.064;2023-04-30T09:35:43;19.67;56.41
68746;SHT31;66104;45.456;11.064;2023-04-30T09:38:26;19.71;56.85
68746;SHT31;66104;45.456;11.064;2023-04-30T09:41:04;19.73;56.82
68746;SHT31;66104;45.456;11.064;2023-04-30T09:43:53;19.72;57.22
68746;SHT31;66104;45.456;11.064;2023-04-30T09:46:33;19.74;57.63
68746;SHT31;66104;45.456;11.064;2023-04-30T09:49:09;19.79;57.42
68746;SHT31;66104;45.456;11.064;2023-04-30T09:51:54;19.80;56.82
68746;SHT31;66104;45.456;11.064;2023-04-30T09:54:33;19.80;57.02
68746;SHT31;66104;45.456;11.064;2023-04-30T09:57:12;19.84;57.10
68746;SHT31;66104;45.456;11.064;2023-04-30T09:59:51;19.90;56.50
68746;SHT31;66104;45.456;11.064;2023-04-30T10:02:28;19.98;56.12
68746;SHT31;66104;45.456;11.064;2023-04-30T10:05:06;20.12;56.35
68746;SHT31;66104;45.456;11.064;2023-04-30T10:07:44;20.33;55.84
68746;SHT31;66104;45.456;11.064;2023-04-30T10:10:21;20.47;54.72
68746;SHT31;66104;45.456;11.064;2023-04-30T10:13:01;20.59;53.99
68746;SHT31;66104;45.456;11.064;2023-04-30T10:15:48;20.72;53.79
68746;SHT31;66104;45.456;11.064;2023-04-30T10:18:32;20.86;52.40
68746;SHT31;66104;45.456;11.064;2023-04-30T10:21:13;20.95;51.50
68746;SHT31;66104;45.456;11.064;2023-04-30T10:23:55;21.01;50.30
68746;SHT31;66104;45.456;11.064;2023-04-30T10:26:33;21.11;49.58
68746;SHT31;66104;45.456;11.064;2023-04-30T10:29:11;21.23;48.91
68746;SHT31;66104;45.456;11.064;2023-04-30T10:31:48;21.34;48.75
68746;SHT31;66104;45.456;11.064;2023-04-30T10:34:28;21.40;48.13
68746;SHT31;66104;45.456;11.064;2023-04-30T10:37:17;21.47;48.14
68746;SHT31;66104;45.456;11.064;2023-04-30T10:40:06;21.47;47.09
68746;SHT31;66104;45.456;11.064;2023-04-30T10:42:46;21.47;47.08
68746;SHT31;66104;45.456;11.064;2023-04-30T10:45:35;21.49;47.02
68746;SHT31;66104;45.456;11.064;2023-04-30T10:48:14;21.50;46.93
68746;SHT31;66104;45.456;11.064;2023-04-30T10:50:56;21.56;45.81
68746;SHT31;66104;45.456;11.064;2023-04-30T10:53:35;21.65;46.51
68746;SHT31;66104;45.456;11.064;2023-04-30T10:56:12;21.77;46.79
68746;SHT31;66104;45.456;11.064;2023-04-30T10:59:01;21.82;45.94
68746;SHT31;66104;45.456;11.064;2023-04-30T11:01:56;21.82;45.80
68746;SHT31;66104;45.456;11.064;2023-04-30T11:04:33;21.81;45.27
68746;SHT31;66104;45.456;11.064;2023-04-30T11:07:49;21.87;46.01
68746;SHT31;66104;45.456;11.064;2023-04-30T11:10:32;21.97;45.62
68746;SHT31;66104;45.456;11.064;2023-04-30T11:13:09;22.09;45.79
68746;SHT31;66104;45.456;11.064;2023-04-30T11:15:46;22.18;45.04
68746;SHT31;66104;45.456;11.064;2023-04-30T11:18:25;22.27;44.70
68746;SHT31;66104;45.456;11.064;2023-04-30T11:21:01;22.34;43.78
68746;SHT31;66104;45.456;11.064;2023-04-30T11:23:41;22.33;43.73
68746;SHT31;66104;45.456;11.064;2023-04-30T11:26:21;22.34;44.25
68746;SHT31;66104;45.456;11.064;2023-04-30T11:28:58;22.36;43.86
68746;SHT31;66104;45.456;11.064;2023-04-30T11:31:35;22.35;43.88
68746;SHT31;66104;45.456;11.064;2023-04-30T11:34:12;22.36;43.47
68746;SHT31;66104;45.456;11.064;2023-04-30T11:36:50;22.33;42.80
68746;SHT31;66104;45.456;11.064;2023-04-30T11:39:28;22.35;42.35
68746;SHT31;66104;45.456;11.064;2023-04-30T11:42:08;22.46;42.33
68746;SHT31;66104;45.456;11.064;2023-04-30T11:44:48;22.55;42.57
68746;SHT31;66104;45.456;11.064;2023-04-30T11:47:25;22.52;42.36
68746;SHT31;66104;45.456;11.064;2023-04-30T11:50:12;22.46;42.79
68746;SHT31;66104;45.456;11.064;2023-04-30T11:52:55;22.42;42.53
68746;SHT31;66104;45.456;11.064;2023-04-30T11:55:33;22.49;42.31
68746;SHT31;66104;45.456;11.064;2023-04-30T11:58:13;22.52;42.53
68746;SHT31;66104;45.456;11.064;2023-04-30T12:00:49;22.58;43.22
68746;SHT31;66104;45.456;11.064;2023-04-30T12:03:31;22.57;42.31
68746;SHT31;66104;45.456;11.064;2023-04-30T12:06:20;22.37;41.98
68746;SHT31;66104;45.456;11.064;2023-04-30T12:08:58;22.31;41.93
68746;SHT31;66104;45.456;11.064;2023-04-30T12:11:37;22.33;42.50
68746;SHT31;66104;45.456;11.064;2023-04-30T12:14:13;22.35;42.60
68746;SHT31;66104;45.456;11.064;2023-04-30T12:16:50;22.30;42.39
68746;SHT31;66104;45.456;11.064;2023-04-30T12:19:28;22.39;42.69
68746;SHT31;66104;45.456;11.064;2023-04-30T12:22:04;22.53;43.12
68746;SHT31;66104;45.456;11.064;2023-04-30T12:24:40;22.65;42.53
68746;SHT31;66104;45.456;11.064;2023-04-30T12:27:16;22.72;42.41
68746;SHT31;66104;45.456;11.064;2023-04-30T12:29:53;22.74;42.09
68746;SHT31;66104;45.456;11.064;2023-04-30T12:32:31;22.69;42.00
68746;SHT31;66104;45.456;11.064;2023-04-30T12:35:12;22.66;42.41
68746;SHT31;66104;45.456;11.064;2023-04-30T12:37:49;22.64;42.76
68746;SHT31;66104;45.456;11.064;2023-04-30T12:40:32;22.61;42.85
68746;SHT31;66104;45.456;11.064;2023-04-30T12:43:09;22.61;43.00
68746;SHT31;66104;45.456;11.064;2023-04-30T12:45:48;22.65;42.32
68746;SHT31;66104;45.456;11.064;2023-04-30T12:48:26;22.56;41.88
68746;SHT31;66104;45.456;11.064;2023-04-30T12:51:18;22.42;42.01
68746;SHT31;66104;45.456;11.064;2023-04-30T12:53:56;22.29;43.08
68746;SHT31;66104;45.456;11.064;2023-04-30T12:56:32;22.18;43.74
68746;SHT31;66104;45.456;11.064;2023-04-30T12:59:15;22.13;42.89
68746;SHT31;66104;45.456;11.064;2023-04-30T13:01:52;22.08;42.46
68746;SHT31;66104;45.456;11.064;2023-04-30T13:04:37;22.14;42.43
68746;SHT31;66104;45.456;11.064;2023-04-30T13:07:14;22.23;43.21
68746;SHT31;66104;45.456;11.064;2023-04-30T13:09:49;22.20;42.62
68746;SHT31;66104;45.456;11.064;2023-04-30T13:12:25;22.08;42.34
68746;SHT31;66104;45.456;11.064;2023-04-30T13:15:02;21.98;42.85
68746;SHT31;66104;45.456;11.064;2023-04-30T13:17:44;21.93;42.65
68746;SHT31;66104;45.456;11.064;2023-04-30T13:20:21;21.87;42.80
68746;SHT31;66104;45.456;11.064;2023-04-30T13:22:57;21.73;43.35
68746;SHT31;66104;45.456;11.064;2023-04-30T13:25:33;21.60;43.65
68746;SHT31;66104;45.456;11.064;2023-04-30T13:28:10;21.52;44.07
68746;SHT31;66104;45.456;11.064;2023-04-30T13:30:46;21.44;43.47
68746;SHT31;66104;45.456;11.064;2023-04-30T13:33:22;21.36;42.78
68746;SHT31;66104;45.456;11.064;2023-04-30T13:35:59;21.32;43.02
68746;SHT31;66104;45.456;11.064;2023-04-30T13:38:36;21.25;43.20
68746;SHT31;66104;45.456;11.064;2023-04-30T13:41:13;21.19;43.64
68746;SHT31;66104;45.456;11.064;2023-04-30T13:43:49;21.13;44.26
68746;SHT31;66104;45.456;11.064;2023-04-30T13:46:26;21.15;44.77
68746;SHT31;66104;45.456;11.064;2023-04-30T13:49:03;21.17;45.07
68746;SHT31;66104;45.456;11.064;2023-04-30T13:51:40;21.15;44.65
68746;SHT31;66104;45.456;11.064;2023-04-30T13:54:17;21.18;45.12
68746;SHT31;66104;45.456;11.064;2023-04-30T13:56:54;21.19;45.06
68746;SHT31;66104;45.456;11.064;2023-04-30T13:59:31;21.21;45.07
68746;SHT31;66104;45.456;11.064;2023-04-30T14:02:08;21.22;45.10
68746;SHT31;66104;45.456;11.064;2023-04-30T14:04:45;21.27;45.27
68746;SHT31;66104;45.456;11.064;2023-04-30T14:07:34;21.27;45.20
68746;SHT31;66104;45.456;11.064;2023-04-30T14:10:11;21.29;44.92
68746;SHT31;66104;45.456;11.064;2023-04-30T14:12:47;21.28;44.74
68746;SHT31;66104;45.456;11.064;2023-04-30T14:15:23;21.29;44.75
68746;SHT31;66104;45.456;11.064;2023-04-30T14:18:00;21.37;45.00
68746;SHT31;66104;45.456;11.064;2023-04-30T14:20:35;21.42;44.85
68746;SHT31;66104;45.456;11.064;2023-04-30T14:23:11;21.42;44.90
68746;SHT31;66104;45.456;11.064;2023-04-30T14:25:48;21.44;44.77
68746;SHT31;66104;45.456;11.064;2023-04-30T14:28:25;21.40;44.29
68746;SHT31;66104;45.456;11.064;2023-04-30T14:31:01;21.36;44.73
68746;SHT31;66104;45.456;11.064;2023-04-30T14:33:39;21.38;44.82
68746;SHT31;66104;45.456;11.064;2023-04-30T14:36:15;21.36;44.82
68746;SHT31;66104;45.456;11.064;2023-04-30T14:38:51;21.31;44.75
68746;SHT31;66104;45.456;11.064;2023-04-30T14:41:28;21.29;44.83
68746;SHT31;66104;45.456;11.064;2023-04-30T14:44:07;21.29;45.31
68746;SHT31;66104;45.456;11.064;2023-04-30T14:46:44;21.29;45.46
68746;SHT31;66104;45.456;11.064;2023-04-30T14:49:21;21.29;45.22
68746;SHT31;66104;45.456;11.064;2023-04-30T14:51:58;21.28;45.15
68746;SHT31;66104;45.456;11.064;2023-04-30T14:54:34;21.31;45.34
68746;SHT31;66104;45.456;11.064;2023-04-30T14:57:11;21.35;45.32
68746;SHT31;66104;45.456;11.064;2023-04-30T14:59:47;21.38;45.19
68746;SHT31;66104;45.456;11.064;2023-04-30T15:02:25;21.42;45.32
68746;SHT31;66104;45.456;11.064;2023-04-30T15:05:02;21.47;45.58
68746;SHT31;66104;45.456;11.064;2023-04-30T15:07:40;21.50;45.53
68746;SHT31;66104;45.456;11.064;2023-04-30T15:10:16;21.54;45.74
68746;SHT31;66104;45.456;11.064;2023-04-30T15:12:52;21.50;46.18
68746;SHT31;66104;45.456;11.064;2023-04-30T15:15:29;21.49;46.28
68746;SHT31;66104;45.456;11.064;2023-04-30T15:18:05;21.48;46.56
68746;SHT31;66104;45.456;11.064;2023-04-30T15:20:41;21.42;46.51
68746;SHT31;66104;45.456;11.064;2023-04-30T15:23:18;21.32;46.81
68746;SHT31;66104;45.456;11.064;2023-04-30T15:25:54;21.28;46.85
68746;SHT31;66104;45.456;11.064;2023-04-30T15:28:31;21.24;46.65
68746;SHT31;66104;45.456;11.064;2023-04-30T15:31:08;21.17;46.81
68746;SHT31;66104;45.456;11.064;2023-04-30T15:33:44;21.11;47.13
68746;SHT31;66104;45.456;11.064;2023-04-30T15:36:21;21.08;47.34
68746;SHT31;66104;45.456;11.064;2023-04-30T15:38:57;21.06;47.68
68746;SHT31;66104;45.456;11.064;2023-04-30T15:41:33;21.03;47.80
68746;SHT31;66104;45.456;11.064;2023-04-30T15:44:10;21.01;48.03
68746;SHT31;66104;45.456;11.064;2023-04-30T15:46:46;20.97;48.35
68746;SHT31;66104;45.456;11.064;2023-04-30T15:49:23;20.97;48.59
68746;SHT31;66104;45.456;11.064;2023-04-30T15:51:59;20.98;48.76
68746;SHT31;66104;45.456;11.064;2023-04-30T15:54:36;20.97;48.75
68746;SHT31;66104;45.456;11.064;2023-04-30T15:57:12;20.96;49.00
68746;SHT31;66104;45.456;11.064;2023-04-30T15:59:49;20.93;49.09
68746;SHT31;66104;45.456;11.064;2023-04-30T16:02:26;20.88;49.24
68746;SHT31;66104;45.456;11.064;2023-04-30T16:05:04;20.85;49.51
68746;SHT31;66104;45.456;11.064;2023-04-30T16:07:42;20.83;49.64
68746;SHT31;66104;45.456;11.064;2023-04-30T16:10:18;20.80;49.78
68746;SHT31;66104;45.456;11.064;2023-04-30T16:12:55;20.77;50.04
68746;SHT31;66104;45.456;11.064;2023-04-30T16:15:32;20.75;50.21
68746;SHT31;66104;45.456;11.064;2023-04-30T16:18:08;20.74;50.31
68746;SHT31;66104;45.456;11.064;2023-04-30T16:20:47;20.74;50.39
68746;SHT31;66104;45.456;11.064;2023-04-30T16:23:24;20.73;50.54
68746;SHT31;66104;45.456;11.064;2023-04-30T16:26:01;20.69;50.68
68746;SHT31;66104;45.456;11.064;2023-04-30T16:28:36;20.67;50.75
68746;SHT31;66104;45.456;11.064;2023-04-30T16:31:13;20.69;51.08